createdAt,value
2023-03-04T00:02:49.149Z,11.69
2023-03-04T00:07:56.507Z,11.72
2023-03-04T00:13:04.215Z,11.73
2023-03-04T00:18:11.628Z,11.71
2023-03-04T00:23:19.138Z,11.74
2023-03-04T00:28:26.308Z,11.73
2023-03-04T00:33:33.466Z,11.76
2023-03-04T00:38:40.587Z,11.81
2023-03-04T00:43:47.777Z,11.80
2023-03-04T00:48:54.862Z,11.76
2023-03-04T00:54:02.263Z,11.80
2023-03-04T00:59:09.618Z,11.77
2023-03-04T01:04:17.076Z,11.80
2023-03-04T01:09:24.284Z,11.80
2023-03-04T01:14:31.744Z,11.83
2023-03-04T01:19:39.274Z,11.82
2023-03-04T01:24:46.824Z,11.85
2023-03-04T01:29:53.914Z,11.85
2023-03-04T01:35:01.218Z,11.88
2023-03-04T01:40:09.547Z,11.86
2023-03-04T01:45:18.595Z,11.88
2023-03-04T01:50:28.456Z,11.87
2023-03-04T01:55:35.877Z,11.87
2023-03-04T02:00:42.886Z,11.88
2023-03-04T02:05:51.568Z,11.92
2023-03-04T02:10:58.826Z,11.89
2023-03-04T02:16:06.336Z,11.88
2023-03-04T02:21:17.241Z,11.88
2023-03-04T02:26:25.600Z,11.91
2023-03-04T02:31:36.129Z,11.91
2023-03-04T02:36:44.778Z,11.91
2023-03-04T02:41:52.617Z,11.87
2023-03-04T02:47:00.416Z,11.91
2023-03-04T02:52:08.682Z,11.90
2023-03-04T02:57:16.681Z,11.90
2023-03-04T03:02:23.925Z,11.90
2023-03-04T03:07:31.194Z,11.93
2023-03-04T03:12:38.492Z,11.92
2023-03-04T03:17:45.790Z,11.91
2023-03-04T03:22:52.877Z,11.92
2023-03-04T03:27:59.919Z,11.94
2023-03-04T03:33:07.208Z,11.94
2023-03-04T03:38:14.454Z,11.93
2023-03-04T03:43:21.726Z,11.94
2023-03-04T03:48:29.150Z,11.94
2023-03-04T03:53:36.232Z,11.93
2023-03-04T03:58:51.263Z,11.95
2023-03-04T04:03:58.588Z,11.95
2023-03-04T04:09:06.386Z,11.94
2023-03-04T04:14:15.697Z,11.93
2023-03-04T04:19:23.318Z,11.97
2023-03-04T04:24:30.846Z,11.95
2023-03-04T04:29:38.293Z,11.93
2023-03-04T04:34:45.743Z,11.94
2023-03-04T04:39:55.714Z,11.93
2023-03-04T04:45:03.341Z,11.96
2023-03-04T04:50:11.506Z,11.97
2023-03-04T04:55:19.285Z,11.97
2023-03-04T05:00:26.781Z,11.96
2023-03-04T05:05:34.204Z,11.97
2023-03-04T05:10:41.450Z,11.98
2023-03-04T05:15:48.812Z,11.96
2023-03-04T05:20:56.832Z,11.96
2023-03-04T05:26:04.301Z,11.94
2023-03-04T05:31:11.770Z,11.95
2023-03-04T05:36:19.191Z,11.96
2023-03-04T05:41:26.373Z,11.96
2023-03-04T05:46:34.030Z,11.96
2023-03-04T05:51:41.701Z,11.97
2023-03-04T05:56:49.202Z,11.98
2023-03-04T06:01:56.831Z,11.99
2023-03-04T06:07:04.164Z,11.97
2023-03-04T06:12:11.942Z,11.99
2023-03-04T06:17:19.591Z,11.99
2023-03-04T06:22:26.814Z,11.97
2023-03-04T06:27:34.332Z,11.98
2023-03-04T06:32:44.711Z,11.99
2023-03-04T06:37:51.979Z,11.98
2023-03-04T06:42:59.399Z,11.98
2023-03-04T06:48:07.080Z,11.97
2023-03-04T06:53:14.321Z,11.98
2023-03-04T06:58:21.621Z,11.97
2023-03-04T07:03:28.974Z,11.99
2023-03-04T07:08:35.891Z,11.97
2023-03-04T07:13:42.939Z,11.97
2023-03-04T07:18:50.423Z,11.98
2023-03-04T07:23:57.770Z,11.96
2023-03-04T07:29:04.879Z,11.95
2023-03-04T07:34:14.341Z,11.97
2023-03-04T07:39:21.975Z,11.96
2023-03-04T07:44:29.530Z,11.97
2023-03-04T07:49:36.802Z,11.97
2023-03-04T07:54:44.031Z,11.96
2023-03-04T07:59:51.329Z,11.96
2023-03-04T08:04:58.480Z,11.96
2023-03-04T08:10:05.749Z,11.94
2023-03-04T08:15:13.604Z,11.95
2023-03-04T08:20:21.003Z,11.93
2023-03-04T08:25:27.919Z,11.93
2023-03-04T08:30:35.152Z,11.94
2023-03-04T08:35:42.509Z,11.94
2023-03-04T08:40:54.058Z,11.93
2023-03-04T08:46:01.638Z,11.93
2023-03-04T08:51:11.915Z,11.91
2023-03-04T08:56:19.173Z,11.94
2023-03-04T09:01:26.464Z,11.91
2023-03-04T09:06:34.006Z,11.90
2023-03-04T09:11:41.473Z,11.89
2023-03-04T09:16:49.028Z,11.89
2023-03-04T09:21:57.201Z,11.89
2023-03-04T09:27:04.348Z,11.88
2023-03-04T09:32:11.708Z,11.86
2023-03-04T09:37:19.103Z,11.84
2023-03-04T09:42:28.113Z,11.83
2023-03-04T09:47:35.931Z,11.83
2023-03-04T09:52:47.441Z,11.82
2023-03-04T09:58:00.709Z,11.84
2023-03-04T10:03:17.270Z,11.81
2023-03-04T10:08:33.839Z,11.81
2023-03-04T10:13:45.046Z,11.81
2023-03-04T10:18:55.643Z,11.82
2023-03-04T10:24:07.428Z,11.79
2023-03-04T10:29:17.756Z,11.80
2023-03-04T10:34:25.032Z,11.78
2023-03-04T10:39:33.588Z,11.76
2023-03-04T10:44:43.674Z,11.75
2023-03-04T10:49:54.698Z,11.74
2023-03-04T10:55:03.000Z,11.78
2023-03-04T11:00:26.084Z,11.75
2023-03-04T11:05:34.609Z,11.74
2023-03-04T11:10:43.047Z,11.73
2023-03-04T11:15:56.257Z,11.72
2023-03-04T11:21:08.125Z,11.70
2023-03-04T11:26:17.231Z,11.70
2023-03-04T11:31:25.518Z,11.68
2023-03-04T11:36:35.887Z,11.70
2023-03-04T11:41:47.093Z,11.67
2023-03-04T11:47:03.582Z,11.66
2023-03-04T11:52:16.814Z,11.69
2023-03-04T11:57:33.495Z,11.67
2023-03-04T12:02:45.076Z,11.67
2023-03-04T12:08:00.438Z,11.63
2023-03-04T12:13:19.758Z,11.63
2023-03-04T12:18:36.480Z,11.64
2023-03-04T12:23:52.973Z,11.62
2023-03-04T12:29:04.138Z,11.61
2023-03-04T12:34:28.198Z,11.63
2023-03-04T12:39:35.979Z,11.62
2023-03-04T12:44:45.795Z,11.60
2023-03-04T12:50:02.761Z,11.60
2023-03-04T12:55:12.947Z,11.58
2023-03-04T13:00:25.262Z,11.57
2023-03-04T13:05:39.004Z,11.57
2023-03-04T13:10:46.139Z,11.55
2023-03-04T13:16:03.865Z,11.54
2023-03-04T13:21:24.052Z,11.54
2023-03-04T13:26:35.174Z,11.55
2023-03-04T13:32:01.605Z,11.54
2023-03-04T13:37:27.777Z,11.53
2023-03-04T13:42:41.779Z,11.55
2023-03-04T13:47:50.314Z,11.52
2023-03-04T13:52:59.714Z,11.50
2023-03-04T13:58:15.817Z,11.49
2023-03-04T14:03:25.265Z,11.49
2023-03-04T14:08:33.124Z,11.47
2023-03-04T14:13:41.502Z,11.46
2023-03-04T14:18:48.781Z,11.45
2023-03-04T14:24:04.136Z,11.44
2023-03-04T14:29:23.446Z,11.42
2023-03-04T14:34:32.448Z,11.42
2023-03-04T14:39:39.877Z,11.43
2023-03-04T14:44:49.389Z,11.40
2023-03-04T14:49:56.709Z,11.40
2023-03-04T14:55:06.182Z,11.38
2023-03-04T15:00:29.861Z,11.37
2023-03-04T15:05:38.094Z,11.35
2023-03-04T15:10:45.543Z,11.33
2023-03-04T15:16:02.085Z,11.32
2023-03-04T15:21:30.400Z,11.34
2023-03-04T15:26:40.655Z,11.33
2023-03-04T15:31:49.649Z,11.34
2023-03-04T15:36:58.557Z,11.31
2023-03-04T15:42:05.864Z,11.28
2023-03-04T15:47:14.385Z,11.28
2023-03-04T15:52:23.249Z,11.27
2023-03-04T15:57:31.277Z,11.29
2023-03-04T16:02:38.613Z,11.28
2023-03-04T16:07:47.546Z,11.29
2023-03-04T16:12:55.379Z,11.27
2023-03-04T16:18:02.709Z,11.24
2023-03-04T16:23:12.914Z,11.25
2023-03-04T16:28:20.427Z,11.25
2023-03-04T16:33:28.000Z,11.25
2023-03-04T16:38:35.609Z,11.23
2023-03-04T16:43:43.277Z,11.22
2023-03-04T16:48:50.713Z,11.21
2023-03-04T16:54:00.455Z,11.20
2023-03-04T16:59:07.854Z,11.19
2023-03-04T17:04:15.075Z,11.21
2023-03-04T17:09:22.358Z,11.16
2023-03-04T17:14:29.906Z,11.17
2023-03-04T17:19:37.219Z,11.16
2023-03-04T17:24:44.922Z,11.17
2023-03-04T17:29:53.623Z,11.17
2023-03-04T17:35:01.124Z,11.16
2023-03-04T17:40:09.465Z,11.13
2023-03-04T17:45:17.043Z,11.13
2023-03-04T17:50:24.375Z,11.12
2023-03-04T17:55:32.155Z,11.11
2023-03-04T18:00:39.505Z,11.12
2023-03-04T18:05:46.819Z,11.10
2023-03-04T18:10:54.166Z,11.09
2023-03-04T18:16:01.542Z,11.09
2023-03-04T18:21:08.898Z,11.08
2023-03-04T18:26:16.328Z,11.08
2023-03-04T18:31:24.745Z,11.06
2023-03-04T18:36:31.978Z,11.05
2023-03-04T18:41:38.910Z,11.04
2023-03-04T18:46:48.380Z,11.04
2023-03-04T18:51:55.436Z,11.03
2023-03-04T18:57:03.878Z,11.01
2023-03-04T19:02:15.619Z,11.01
2023-03-04T19:07:23.751Z,10.99
2023-03-04T19:12:30.932Z,10.98
2023-03-04T19:17:38.201Z,11.00
2023-03-04T19:22:46.391Z,10.98
2023-03-04T19:27:55.731Z,10.98
2023-03-04T19:33:03.509Z,10.98
2023-03-04T19:38:10.761Z,10.95
2023-03-04T19:43:17.782Z,10.95
2023-03-04T19:48:25.418Z,10.93
2023-03-04T19:53:34.748Z,10.94
2023-03-04T19:58:42.342Z,10.93
2023-03-04T20:03:49.757Z,10.92
2023-03-04T20:08:57.646Z,10.92
2023-03-04T20:14:05.172Z,10.92
2023-03-04T20:19:12.388Z,10.90
2023-03-04T20:24:21.307Z,10.91
2023-03-04T20:29:29.277Z,10.91
2023-03-04T20:34:37.259Z,10.92
2023-03-04T20:39:44.486Z,10.91
2023-03-04T20:44:51.810Z,10.89
2023-03-04T20:49:59.034Z,10.88
2023-03-04T20:55:06.611Z,10.89
2023-03-04T21:00:14.934Z,10.88
2023-03-04T21:05:22.290Z,10.85
2023-03-04T21:10:30.040Z,10.85
2023-03-04T21:15:37.279Z,10.83
2023-03-04T21:20:45.202Z,10.81
2023-03-04T21:25:52.598Z,10.82
2023-03-04T21:31:00.489Z,10.80
2023-03-04T21:36:08.392Z,10.81
2023-03-04T21:41:16.216Z,10.81
2023-03-04T21:46:24.122Z,10.79
2023-03-04T21:51:31.500Z,10.78
2023-03-04T21:56:39.145Z,10.77
2023-03-04T22:01:47.110Z,10.76
2023-03-04T22:06:54.378Z,10.75
2023-03-04T22:12:01.796Z,10.74
2023-03-04T22:17:09.301Z,10.73
2023-03-04T22:22:18.315Z,10.74
2023-03-04T22:27:25.664Z,10.72
2023-03-04T22:32:33.104Z,10.73
2023-03-04T22:37:40.569Z,10.72
2023-03-04T22:42:48.369Z,10.71
2023-03-04T22:47:55.573Z,10.70
2023-03-04T22:53:02.888Z,10.69
2023-03-04T22:58:10.142Z,10.69
2023-03-04T23:03:17.762Z,10.67
2023-03-04T23:08:25.421Z,10.67
2023-03-04T23:13:34.058Z,10.65
2023-03-04T23:18:41.950Z,10.65
2023-03-04T23:23:49.840Z,10.66
2023-03-04T23:28:57.526Z,10.63
2023-03-04T23:34:05.353Z,10.63
2023-03-04T23:39:13.316Z,10.60
2023-03-04T23:44:20.663Z,10.62
2023-03-04T23:49:27.786Z,10.60
2023-03-04T23:54:35.010Z,10.59
2023-03-04T23:59:42.223Z,10.59
